createdAt,value
2023-01-08T00:00:35.532Z,2.12
2023-01-08T00:03:25.477Z,2.11
2023-01-08T00:05:54.679Z,2.09
2023-01-08T00:08:23.772Z,2.06
2023-01-08T00:10:56.236Z,2.05
2023-01-08T00:13:25.733Z,2.05
2023-01-08T00:15:55.068Z,2.07
2023-01-08T00:18:27.833Z,2.11
2023-01-08T00:20:56.991Z,2.17
2023-01-08T00:23:26.662Z,2.22
2023-01-08T00:25:55.458Z,2.24
2023-01-08T00:28:24.404Z,2.26
2023-01-08T00:30:53.258Z,2.26
2023-01-08T00:33:22.697Z,2.26
2023-01-08T00:35:51.890Z,2.26
2023-01-08T00:38:20.597Z,2.24
2023-01-08T00:40:49.700Z,2.21
2023-01-08T00:43:18.969Z,2.18
2023-01-08T00:45:48.325Z,2.13
2023-01-08T00:48:16.974Z,2.10
2023-01-08T00:50:45.949Z,2.07
2023-01-08T00:53:15.150Z,2.05
2023-01-08T00:55:44.060Z,2.02
2023-01-08T00:58:13.346Z,2.00
2023-01-08T01:00:42.233Z,1.98
2023-01-08T01:03:11.314Z,1.97
2023-01-08T01:05:40.722Z,1.95
2023-01-08T01:08:09.414Z,1.92
2023-01-08T01:10:40.241Z,1.87
2023-01-08T01:13:09.168Z,1.82
2023-01-08T01:15:37.827Z,1.77
2023-01-08T01:18:06.401Z,1.75
2023-01-08T01:20:35.522Z,1.70
2023-01-08T01:23:05.222Z,1.65
2023-01-08T01:25:38.297Z,1.59
2023-01-08T01:28:06.884Z,1.54
2023-01-08T01:30:37.179Z,1.49
2023-01-08T01:33:05.690Z,1.44
2023-01-08T01:35:34.571Z,1.40
2023-01-08T01:38:03.181Z,1.37
2023-01-08T01:40:32.158Z,1.35
2023-01-08T01:43:00.851Z,1.33
2023-01-08T01:45:29.680Z,1.31
2023-01-08T01:48:01.846Z,1.29
2023-01-08T01:50:42.059Z,1.26
2023-01-08T01:53:31.011Z,1.25
2023-01-08T01:56:00.713Z,1.25
2023-01-08T01:58:33.197Z,1.23
2023-01-08T02:01:05.984Z,1.21
2023-01-08T02:03:37.609Z,1.20
2023-01-08T02:06:21.691Z,1.19
2023-01-08T02:09:03.566Z,1.17
2023-01-08T02:12:15.260Z,1.15
2023-01-08T02:15:18.380Z,1.14
2023-01-08T02:18:03.731Z,1.14
2023-01-08T02:20:40.902Z,1.12
2023-01-08T02:23:28.436Z,1.10
2023-01-08T02:26:32.063Z,1.07
2023-01-08T02:29:15.261Z,1.02
2023-01-08T02:31:45.191Z,0.97
2023-01-08T02:34:13.866Z,0.96
2023-01-08T02:36:45.771Z,1.00
2023-01-08T02:39:30.688Z,1.04
2023-01-08T02:42:06.581Z,1.07
2023-01-08T02:45:21.321Z,1.11
2023-01-08T02:48:08.752Z,1.11
2023-01-08T02:50:51.241Z,1.10
2023-01-08T02:53:24.032Z,1.10
2023-01-08T02:55:56.211Z,1.11
2023-01-08T02:58:26.921Z,1.11
2023-01-08T03:00:55.848Z,1.12
2023-01-08T03:03:27.381Z,1.13
2023-01-08T03:05:58.573Z,1.12
2023-01-08T03:08:28.033Z,1.12
2023-01-08T03:11:01.712Z,1.12
2023-01-08T03:13:51.721Z,1.12
2023-01-08T03:16:32.634Z,1.11
2023-01-08T03:19:16.960Z,1.11
2023-01-08T03:21:46.331Z,1.11
2023-01-08T03:24:17.665Z,1.11
2023-01-08T03:26:47.832Z,1.09
2023-01-08T03:29:19.450Z,1.06
2023-01-08T03:31:48.975Z,1.04
2023-01-08T03:34:18.997Z,1.01
2023-01-08T03:36:51.263Z,0.99
2023-01-08T03:39:29.472Z,0.97
2023-01-08T03:42:02.350Z,0.97
2023-01-08T03:44:31.353Z,0.96
2023-01-08T03:46:59.863Z,0.95
2023-01-08T03:49:29.943Z,0.93
2023-01-08T03:51:58.440Z,0.91
2023-01-08T03:54:31.895Z,0.89
2023-01-08T03:57:00.593Z,0.89
2023-01-08T03:59:29.788Z,0.89
2023-01-08T04:01:59.490Z,0.88
2023-01-08T04:04:29.361Z,0.88
2023-01-08T04:06:57.994Z,0.88
2023-01-08T04:09:26.692Z,0.89
2023-01-08T04:11:55.475Z,0.91
2023-01-08T04:14:24.178Z,0.94
2023-01-08T04:16:52.936Z,0.95
2023-01-08T04:19:21.640Z,0.94
2023-01-08T04:21:54.111Z,0.90
2023-01-08T04:24:22.915Z,0.83
2023-01-08T04:26:51.704Z,0.79
2023-01-08T04:29:20.902Z,0.77
2023-01-08T04:31:49.791Z,0.76
2023-01-08T04:34:18.862Z,0.76
2023-01-08T04:36:47.871Z,0.78
2023-01-08T04:39:17.053Z,0.79
2023-01-08T04:41:45.633Z,0.80
2023-01-08T04:44:14.340Z,0.81
2023-01-08T04:46:43.186Z,0.82
2023-01-08T04:49:13.118Z,0.83
2023-01-08T04:51:41.808Z,0.84
2023-01-08T04:54:11.928Z,0.84
2023-01-08T04:56:40.736Z,0.86
2023-01-08T04:59:09.609Z,0.87
2023-01-08T05:01:38.519Z,0.90
2023-01-08T05:04:07.512Z,0.93
2023-01-08T05:06:36.283Z,0.94
2023-01-08T05:09:05.081Z,0.95
2023-01-08T05:11:33.651Z,0.95
2023-01-08T05:14:02.428Z,0.94
2023-01-08T05:16:31.129Z,0.93
2023-01-08T05:19:00.931Z,0.93
2023-01-08T05:21:29.928Z,0.92
2023-01-08T05:23:58.985Z,0.93
2023-01-08T05:26:27.811Z,0.93
2023-01-08T05:28:56.380Z,0.93
2023-01-08T05:31:25.396Z,0.92
2023-01-08T05:33:53.960Z,0.92
2023-01-08T05:36:22.750Z,0.92
2023-01-08T05:38:51.437Z,0.91
2023-01-08T05:41:20.354Z,0.91
2023-01-08T05:43:49.409Z,0.89
2023-01-08T05:46:18.158Z,0.89
2023-01-08T05:48:46.905Z,0.89
2023-01-08T05:51:15.894Z,0.89
2023-01-08T05:53:44.481Z,0.89
2023-01-08T05:56:13.772Z,0.91
2023-01-08T05:58:43.576Z,0.91
2023-01-08T06:01:16.450Z,0.92
2023-01-08T06:03:45.729Z,0.96
2023-01-08T06:06:16.751Z,0.97
2023-01-08T06:08:45.485Z,0.98
2023-01-08T06:11:15.312Z,0.98
2023-01-08T06:13:45.145Z,0.98
2023-01-08T06:16:14.143Z,0.97
2023-01-08T06:18:42.974Z,0.98
2023-01-08T06:21:13.831Z,1.00
2023-01-08T06:23:43.233Z,1.02
2023-01-08T06:26:12.852Z,1.05
2023-01-08T06:28:41.724Z,1.07
2023-01-08T06:31:10.698Z,1.10
2023-01-08T06:33:39.835Z,1.14
2023-01-08T06:36:09.153Z,1.23
2023-01-08T06:38:38.323Z,1.33
2023-01-08T06:41:09.454Z,1.41
2023-01-08T06:43:38.990Z,1.46
2023-01-08T06:46:09.409Z,1.49
2023-01-08T06:48:38.518Z,1.53
2023-01-08T06:51:08.498Z,1.58
2023-01-08T06:53:37.814Z,1.68
2023-01-08T06:56:09.789Z,1.81
2023-01-08T06:58:39.695Z,1.96
2023-01-08T07:01:14.382Z,2.09
2023-01-08T07:03:43.823Z,2.19
2023-01-08T07:06:17.235Z,2.29
2023-01-08T07:08:46.531Z,2.36
2023-01-08T07:11:16.110Z,2.44
2023-01-08T07:13:45.012Z,2.50
2023-01-08T07:16:15.225Z,2.56
2023-01-08T07:18:44.531Z,2.59
2023-01-08T07:21:13.432Z,2.62
2023-01-08T07:23:42.503Z,2.66
2023-01-08T07:26:11.711Z,2.72
2023-01-08T07:28:40.614Z,2.79
2023-01-08T07:31:09.563Z,2.87
2023-01-08T07:33:38.576Z,2.95
2023-01-08T07:36:08.102Z,3.02
2023-01-08T07:38:37.598Z,3.07
2023-01-08T07:41:06.499Z,3.10
2023-01-08T07:43:35.875Z,3.14
2023-01-08T07:46:06.478Z,3.18
2023-01-08T07:48:35.397Z,3.23
2023-01-08T07:51:06.267Z,3.27
2023-01-08T07:53:35.867Z,3.31
2023-01-08T07:56:07.529Z,3.36
2023-01-08T07:58:37.433Z,3.40
2023-01-08T08:01:10.705Z,3.42
2023-01-08T08:03:40.572Z,3.44
2023-01-08T08:06:10.427Z,3.46
2023-01-08T08:08:41.236Z,3.46
2023-01-08T08:11:11.076Z,3.45
2023-01-08T08:13:45.206Z,3.45
2023-01-08T08:16:14.442Z,3.46
2023-01-08T08:18:44.616Z,3.48
2023-01-08T08:21:14.225Z,3.53
2023-01-08T08:23:43.734Z,3.60
2023-01-08T08:26:12.509Z,3.66
2023-01-08T08:28:54.302Z,3.71
2023-01-08T08:31:32.870Z,3.77
2023-01-08T08:34:07.273Z,3.84
2023-01-08T08:36:36.455Z,3.90
2023-01-08T08:39:06.465Z,3.94
2023-01-08T08:41:36.271Z,3.98
2023-01-08T08:44:05.499Z,4.06
2023-01-08T08:46:34.611Z,4.15
2023-01-08T08:49:03.448Z,4.26
2023-01-08T08:51:32.795Z,4.37
2023-01-08T08:54:01.551Z,4.48
2023-01-08T08:56:31.437Z,4.58
2023-01-08T08:59:00.462Z,4.66
2023-01-08T09:01:31.554Z,4.73
2023-01-08T09:04:00.695Z,4.81
2023-01-08T09:06:29.463Z,4.90
2023-01-08T09:09:01.959Z,4.99
2023-01-08T09:11:32.412Z,5.08
2023-01-08T09:14:01.788Z,5.15
2023-01-08T09:16:34.342Z,5.22
2023-01-08T09:19:04.890Z,5.29
2023-01-08T09:21:34.476Z,5.39
2023-01-08T09:24:03.692Z,5.47
2023-01-08T09:26:33.589Z,5.55
2023-01-08T09:29:03.096Z,5.63
2023-01-08T09:31:32.242Z,5.73
2023-01-08T09:34:01.692Z,5.82
2023-01-08T09:36:31.429Z,5.91
2023-01-08T09:39:01.806Z,5.98
2023-01-08T09:41:35.557Z,6.08
2023-01-08T09:44:05.788Z,6.18
2023-01-08T09:46:35.951Z,6.27
2023-01-08T09:49:07.853Z,6.39
2023-01-08T09:51:40.981Z,6.50
2023-01-08T09:54:14.455Z,6.60
2023-01-08T09:56:43.543Z,6.71
2023-01-08T09:59:17.779Z,6.79
2023-01-08T10:01:47.223Z,6.88
2023-01-08T10:04:22.313Z,6.95
2023-01-08T10:06:55.261Z,7.02
2023-01-08T10:09:29.380Z,7.09
2023-01-08T10:12:04.415Z,7.14
2023-01-08T10:14:38.389Z,7.18
2023-01-08T10:17:28.115Z,7.22
2023-01-08T10:19:58.543Z,7.28
2023-01-08T10:22:34.781Z,7.32
2023-01-08T10:25:12.308Z,7.38
2023-01-08T10:27:54.481Z,7.43
2023-01-08T10:30:31.609Z,7.47
2023-01-08T10:33:06.347Z,7.52
2023-01-08T10:35:39.396Z,7.57
2023-01-08T10:38:20.657Z,7.60
2023-01-08T10:40:51.557Z,7.64
2023-01-08T10:43:23.208Z,7.68
2023-01-08T10:46:05.736Z,7.72
2023-01-08T10:48:47.106Z,7.74
2023-01-08T10:51:23.984Z,7.81
2023-01-08T10:53:54.745Z,7.86
2023-01-08T10:56:25.622Z,7.92
2023-01-08T10:58:56.231Z,7.97
2023-01-08T11:01:27.823Z,8.01
2023-01-08T11:04:01.903Z,8.04
2023-01-08T11:06:37.416Z,8.06
2023-01-08T11:09:21.468Z,8.08
2023-01-08T11:11:51.123Z,8.11
2023-01-08T11:14:38.619Z,8.14
2023-01-08T11:17:13.045Z,8.17
2023-01-08T11:19:42.033Z,8.20
2023-01-08T11:22:27.751Z,8.23
2023-01-08T11:24:58.154Z,8.27
2023-01-08T11:27:36.300Z,8.30
2023-01-08T11:30:15.037Z,8.33
2023-01-08T11:32:58.192Z,8.37
2023-01-08T11:35:51.255Z,8.39
2023-01-08T11:38:19.835Z,8.40
2023-01-08T11:40:52.713Z,8.43
2023-01-08T11:43:33.297Z,8.44
2023-01-08T11:46:27.357Z,8.47
2023-01-08T11:48:56.305Z,8.49
2023-01-08T11:51:28.517Z,8.51
2023-01-08T11:54:18.218Z,8.53
2023-01-08T11:56:54.219Z,8.55
2023-01-08T11:59:26.729Z,8.56
2023-01-08T12:01:58.492Z,8.58
2023-01-08T12:04:34.237Z,8.59
2023-01-08T12:07:17.368Z,8.61
2023-01-08T12:10:16.044Z,8.62
2023-01-08T12:12:58.252Z,8.62
2023-01-08T12:15:36.220Z,8.63
2023-01-08T12:18:32.612Z,8.65
2023-01-08T12:21:07.093Z,8.66
2023-01-08T12:23:49.016Z,8.68
2023-01-08T12:27:07.253Z,8.68
2023-01-08T12:29:41.829Z,8.63
2023-01-08T12:32:29.413Z,8.59
2023-01-08T12:35:05.380Z,8.54
2023-01-08T12:37:45.401Z,8.50
2023-01-08T12:40:58.754Z,8.44
2023-01-08T12:43:34.169Z,8.38
2023-01-08T12:46:04.281Z,8.34
2023-01-08T12:48:35.960Z,8.30
2023-01-08T12:51:24.914Z,8.25
2023-01-08T12:54:54.870Z,8.21
2023-01-08T12:57:34.602Z,8.15
2023-01-08T13:00:12.834Z,8.10
2023-01-08T13:03:02.906Z,8.06
2023-01-08T13:05:35.867Z,8.03
2023-01-08T13:08:09.367Z,7.99
2023-01-08T13:10:41.165Z,7.94
2023-01-08T13:13:27.030Z,7.88
2023-01-08T13:16:20.387Z,7.82
2023-01-08T13:19:02.197Z,7.78
2023-01-08T13:21:52.050Z,7.72
2023-01-08T13:24:40.403Z,7.65
2023-01-08T13:27:15.749Z,7.60
2023-01-08T13:29:49.854Z,7.54
2023-01-08T13:32:46.292Z,7.49
2023-01-08T13:35:15.912Z,7.44
2023-01-08T13:37:52.837Z,7.39
2023-01-08T13:40:48.141Z,7.35
2023-01-08T13:43:31.118Z,7.32
2023-01-08T13:46:02.636Z,7.30
2023-01-08T13:48:38.677Z,7.27
2023-01-08T13:51:46.447Z,7.24
2023-01-08T13:54:15.611Z,7.21
2023-01-08T13:56:47.823Z,7.18
2023-01-08T13:59:20.051Z,7.15
2023-01-08T14:01:56.097Z,7.13
2023-01-08T14:04:25.707Z,7.10
2023-01-08T14:07:05.140Z,7.07
2023-01-08T14:09:34.690Z,7.05
2023-01-08T14:12:03.860Z,7.02
2023-01-08T14:14:33.964Z,6.99
2023-01-08T14:17:04.403Z,6.96
2023-01-08T14:19:34.536Z,6.94
2023-01-08T14:22:04.445Z,6.92
2023-01-08T14:24:34.242Z,6.89
2023-01-08T14:27:03.761Z,6.86
2023-01-08T14:29:35.613Z,6.82
2023-01-08T14:32:14.424Z,6.78
2023-01-08T14:34:46.508Z,6.72
2023-01-08T14:37:17.165Z,6.69
2023-01-08T14:39:49.546Z,6.63
2023-01-08T14:42:43.368Z,6.58
2023-01-08T14:45:21.587Z,6.51
2023-01-08T14:48:02.961Z,6.44
2023-01-08T14:50:38.147Z,6.37
2023-01-08T14:53:34.393Z,6.31
2023-01-08T14:56:06.971Z,6.24
2023-01-08T14:58:41.742Z,6.19
2023-01-08T15:01:21.408Z,6.14
2023-01-08T15:03:53.095Z,6.10
2023-01-08T15:06:30.646Z,6.06
2023-01-08T15:09:00.567Z,6.01
2023-01-08T15:11:32.317Z,5.97
2023-01-08T15:14:01.091Z,5.93
2023-01-08T15:16:39.686Z,5.89
2023-01-08T15:19:12.590Z,5.86
2023-01-08T15:21:49.034Z,5.84
2023-01-08T15:24:40.993Z,5.81
2023-01-08T15:27:18.993Z,5.77
2023-01-08T15:30:04.587Z,5.72
2023-01-08T15:32:37.636Z,5.68
2023-01-08T15:35:17.935Z,5.63
2023-01-08T15:37:46.734Z,5.59
2023-01-08T15:40:16.413Z,5.55
2023-01-08T15:43:04.695Z,5.51
2023-01-08T15:45:34.243Z,5.47
2023-01-08T15:48:04.288Z,5.44
2023-01-08T15:50:39.099Z,5.42
2023-01-08T15:53:19.377Z,5.41
2023-01-08T15:55:49.005Z,5.39
2023-01-08T15:58:19.030Z,5.36
2023-01-08T16:00:49.749Z,5.34
2023-01-08T16:03:18.919Z,5.32
2023-01-08T16:05:48.137Z,5.31
2023-01-08T16:08:18.170Z,5.30
2023-01-08T16:10:53.532Z,5.27
2023-01-08T16:13:23.292Z,5.26
2023-01-08T16:15:54.948Z,5.24
2023-01-08T16:18:26.767Z,5.23
2023-01-08T16:21:02.033Z,5.22
2023-01-08T16:23:34.077Z,5.22
2023-01-08T16:26:11.259Z,5.21
2023-01-08T16:28:41.013Z,5.19
2023-01-08T16:31:11.285Z,5.18
2023-01-08T16:33:41.652Z,5.17
2023-01-08T16:36:11.631Z,5.16
2023-01-08T16:38:41.229Z,5.14
2023-01-08T16:41:12.003Z,5.13
2023-01-08T16:43:43.474Z,5.13
2023-01-08T16:46:14.268Z,5.14
2023-01-08T16:48:44.198Z,5.14
2023-01-08T16:51:14.027Z,5.14
2023-01-08T16:53:43.622Z,5.14
2023-01-08T16:56:19.427Z,5.12
2023-01-08T16:58:53.182Z,5.11
2023-01-08T17:01:22.759Z,5.11
2023-01-08T17:03:53.351Z,5.12
2023-01-08T17:06:23.334Z,5.14
2023-01-08T17:08:53.580Z,5.15
2023-01-08T17:11:24.692Z,5.16
2023-01-08T17:13:53.809Z,5.17
2023-01-08T17:16:23.448Z,5.17
2023-01-08T17:18:55.597Z,5.17
2023-01-08T17:21:25.248Z,5.16
2023-01-08T17:23:55.102Z,5.14
2023-01-08T17:26:28.798Z,5.13
2023-01-08T17:29:05.303Z,5.13
2023-01-08T17:31:41.935Z,5.12
2023-01-08T17:34:16.168Z,5.10
2023-01-08T17:36:49.653Z,5.10
2023-01-08T17:39:19.053Z,5.09
2023-01-08T17:42:07.827Z,5.08
2023-01-08T17:44:42.431Z,5.07
2023-01-08T17:47:13.777Z,5.07
2023-01-08T17:49:49.838Z,5.08
2023-01-08T17:52:20.994Z,5.09
2023-01-08T17:54:52.937Z,5.11
2023-01-08T17:57:24.304Z,5.12
2023-01-08T17:59:56.409Z,5.12
2023-01-08T18:02:28.920Z,5.13
2023-01-08T18:05:00.241Z,5.14
2023-01-08T18:07:34.007Z,5.14
2023-01-08T18:10:05.999Z,5.16
2023-01-08T18:12:37.056Z,5.18
2023-01-08T18:15:10.654Z,5.21
2023-01-08T18:17:42.237Z,5.22
2023-01-08T18:20:14.733Z,5.21
2023-01-08T18:22:46.758Z,5.19
2023-01-08T18:25:19.427Z,5.17
2023-01-08T18:27:49.701Z,5.15
2023-01-08T18:30:21.008Z,5.13
2023-01-08T18:32:51.443Z,5.11
2023-01-08T18:35:24.482Z,5.10
2023-01-08T18:37:57.727Z,5.10
2023-01-08T18:40:33.543Z,5.10
2023-01-08T18:43:04.046Z,5.11
2023-01-08T18:45:36.222Z,5.11
2023-01-08T18:48:08.255Z,5.12
2023-01-08T18:50:42.375Z,5.13
2023-01-08T18:53:14.114Z,5.14
2023-01-08T18:55:46.868Z,5.15
2023-01-08T18:58:17.737Z,5.16
2023-01-08T19:00:50.494Z,5.16
2023-01-08T19:03:21.182Z,5.17
2023-01-08T19:05:56.042Z,5.20
2023-01-08T19:08:27.335Z,5.22
2023-01-08T19:10:59.688Z,5.23
2023-01-08T19:13:30.133Z,5.24
2023-01-08T19:16:03.466Z,5.23
2023-01-08T19:18:34.674Z,5.21
2023-01-08T19:21:06.955Z,5.20
2023-01-08T19:23:38.031Z,5.18
2023-01-08T19:26:08.804Z,5.18
2023-01-08T19:28:39.251Z,5.17
2023-01-08T19:31:14.106Z,5.17
2023-01-08T19:33:47.115Z,5.16
2023-01-08T19:36:19.738Z,5.17
2023-01-08T19:38:51.752Z,5.18
2023-01-08T19:41:40.359Z,5.18
2023-01-08T19:44:11.852Z,5.17
2023-01-08T19:46:44.151Z,5.17
2023-01-08T19:49:30.478Z,5.18
2023-01-08T19:52:01.933Z,5.15
2023-01-08T19:54:33.253Z,5.13
2023-01-08T19:57:04.901Z,5.10
2023-01-08T19:59:37.851Z,5.08
2023-01-08T20:02:11.035Z,5.07
2023-01-08T20:04:45.707Z,5.07
2023-01-08T20:07:18.725Z,5.06
2023-01-08T20:09:49.962Z,5.07
2023-01-08T20:12:20.731Z,5.08
2023-01-08T20:14:56.008Z,5.08
2023-01-08T20:17:28.381Z,5.06
2023-01-08T20:19:59.396Z,5.05
2023-01-08T20:22:32.202Z,5.04
2023-01-08T20:25:02.824Z,5.01
2023-01-08T20:27:34.433Z,4.98
2023-01-08T20:30:05.950Z,4.95
2023-01-08T20:32:35.675Z,4.92
2023-01-08T20:35:05.386Z,4.89
2023-01-08T20:37:38.512Z,4.85
2023-01-08T20:40:11.780Z,4.82
2023-01-08T20:42:47.160Z,4.79
2023-01-08T20:45:21.937Z,4.75
2023-01-08T20:47:51.973Z,4.72
2023-01-08T20:50:23.041Z,4.69
2023-01-08T20:52:54.607Z,4.65
2023-01-08T20:55:27.402Z,4.61
2023-01-08T20:57:58.598Z,4.57
2023-01-08T21:00:28.974Z,4.52
2023-01-08T21:03:00.232Z,4.49
2023-01-08T21:05:31.267Z,4.43
2023-01-08T21:08:03.243Z,4.38
2023-01-08T21:10:33.252Z,4.35
2023-01-08T21:13:03.272Z,4.31
2023-01-08T21:15:33.479Z,4.28
2023-01-08T21:18:03.211Z,4.25
2023-01-08T21:20:32.397Z,4.22
2023-01-08T21:23:03.251Z,4.18
2023-01-08T21:25:35.512Z,4.14
2023-01-08T21:28:05.415Z,4.10
2023-01-08T21:30:34.676Z,4.04
2023-01-08T21:33:04.013Z,3.99
2023-01-08T21:35:34.414Z,3.95
2023-01-08T21:38:04.175Z,3.92
2023-01-08T21:40:33.251Z,3.87
2023-01-08T21:43:22.002Z,3.84
2023-01-08T21:46:02.630Z,3.80
2023-01-08T21:48:31.652Z,3.79
2023-01-08T21:51:00.135Z,3.77
2023-01-08T21:53:35.365Z,3.75
2023-01-08T21:56:06.137Z,3.73
2023-01-08T21:58:34.791Z,3.69
2023-01-08T22:01:10.590Z,3.66
2023-01-08T22:03:40.258Z,3.64
2023-01-08T22:06:09.341Z,3.61
2023-01-08T22:08:38.227Z,3.58
2023-01-08T22:11:09.167Z,3.54
2023-01-08T22:13:39.451Z,3.49
2023-01-08T22:16:10.966Z,3.42
2023-01-08T22:18:39.775Z,3.34
2023-01-08T22:21:11.225Z,3.26
2023-01-08T22:23:39.863Z,3.18
2023-01-08T22:26:10.710Z,3.10
2023-01-08T22:28:40.534Z,3.03
2023-01-08T22:31:11.530Z,2.99
2023-01-08T22:33:40.773Z,2.96
2023-01-08T22:36:12.791Z,2.95
2023-01-08T22:38:42.036Z,2.96
2023-01-08T22:41:16.890Z,2.95
2023-01-08T22:43:45.633Z,2.95
2023-01-08T22:46:16.090Z,2.94
2023-01-08T22:48:45.176Z,2.94
2023-01-08T22:51:13.853Z,2.94
2023-01-08T22:53:42.962Z,2.93
2023-01-08T22:56:13.163Z,2.93
2023-01-08T22:58:42.875Z,2.94
2023-01-08T23:01:25.925Z,2.94
2023-01-08T23:03:57.328Z,2.93
2023-01-08T23:06:27.780Z,2.90
2023-01-08T23:08:57.190Z,2.87
2023-01-08T23:11:27.104Z,2.85
2023-01-08T23:13:56.201Z,2.82
2023-01-08T23:16:25.771Z,2.79
2023-01-08T23:18:55.830Z,2.76
2023-01-08T23:21:25.545Z,2.73
2023-01-08T23:23:54.805Z,2.67
2023-01-08T23:26:27.066Z,2.61
2023-01-08T23:28:58.037Z,2.56
2023-01-08T23:31:29.079Z,2.50
2023-01-08T23:33:58.883Z,2.47
2023-01-08T23:36:27.457Z,2.44
2023-01-08T23:38:56.772Z,2.41
2023-01-08T23:41:34.446Z,2.40
2023-01-08T23:44:14.427Z,2.39
2023-01-08T23:46:43.419Z,2.37
2023-01-08T23:49:12.394Z,2.35
2023-01-08T23:51:42.749Z,2.33
2023-01-08T23:54:12.953Z,2.30
2023-01-08T23:56:42.328Z,2.27
2023-01-08T23:59:13.992Z,2.25
